Time;durP1;ratioP1;P1;durP2;ratioP2;P2;SDS_P1;SDS_P2;PMS_P1;PMS_P2;Temp;Humidity;BMP_temperature;BMP_pressure;BME280_temperature;BME280_humidity;BME280_pressure;Samples;Min_cycle;Max_cycle;Signal;HPM_P1;HPM_P2
2021/07/05 00:00:24;;;;;;;4.30;3.67;;;;;;;;;;5013725;28;20041;-67
2021/07/05 00:02:51;;;;;;;7.13;3.80;;;;;;;;;;5013913;28;20498;-68
2021/07/05 00:05:17;;;;;;;6.13;3.65;;;;;;;;;;5013051;28;20043;-68
2021/07/05 00:07:47;;;;;;;6.65;3.83;;;;;;;;;;5013692;28;20018;-67
2021/07/05 00:10:13;;;;;;;5.32;3.88;;;;;;;;;;5013477;28;20076;-66
2021/07/05 00:12:44;;;;;;;13.82;8.85;;;;;;;;;;5013401;28;20439;-65
2021/07/05 00:15:10;;;;;;;;;;;;;;;;;;5013029;28;20064;-67
2021/07/05 00:17:36;;;;;;;5.13;3.88;;;;;;;;;;5013425;28;19905;-67
2021/07/05 00:20:04;;;;;;;4.53;3.80;;;;;;;;;;5013237;28;20116;-66
2021/07/05 00:22:30;;;;;;;4.78;3.70;;;;;;;;;;5013185;28;20033;-66
2021/07/05 00:24:56;;;;;;;4.95;3.42;;;;;;;;;;5013172;28;20511;-67
2021/07/05 00:27:22;;;;;;;4.43;3.53;;;;;;;;;;5013008;28;20034;-67
2021/07/05 00:29:48;;;;;;;4.45;4.05;;;614.50;1817.60;;;;;;5013047;28;20061;-66
2021/07/05 00:32:14;;;;;;;4.95;3.50;;;;;;;;;;5013156;28;20057;-66
2021/07/05 00:34:39;;;;;;;4.72;3.83;;;614.50;1817.60;;;;;;5012537;28;20025;-67
2021/07/05 00:37:05;;;;;;;18.98;12.02;;;614.40;1817.60;;;;;;5012897;28;20022;-67
2021/07/05 00:39:31;;;;;;;10.25;7.05;;;614.40;1817.60;;;;;;5013218;28;20045;-67
2021/07/05 00:41:56;;;;;;;5.72;3.88;;;614.40;1843.20;;;;;;5012725;28;20860;-66
2021/07/05 00:44:22;;;;;;;5.40;3.70;;;589.70;1843.20;;;;;;4986450;28;20034;-66
2021/07/05 00:46:48;;;;;;;10.75;6.82;;;614.40;1843.20;;;;;;5011291;28;20045;-66
2021/07/05 00:49:14;;;;;;;39.28;22.60;;;614.40;1817.60;;;;;;5012476;28;20092;-66
2021/07/05 00:51:40;;;;;;;7.65;4.82;;;;;;;;;;5012673;28;20620;-67
2021/07/05 00:54:06;;;;;;;17.50;10.00;;;;;;;;;;5012612;28;20506;-66
2021/07/05 00:56:32;;;;;;;7.95;5.15;;;;;;;;;;5012581;28;20018;-66
2021/07/05 00:58:59;;;;;;;4.97;4.05;;;;;;;;;;5012394;28;20029;-64
2021/07/05 01:01:25;;;;;;;5.07;3.80;;;;;;;;;;5012831;28;20434;-66
2021/07/05 01:03:51;;;;;;;4.75;3.85;;;;;;;;;;5012698;28;20125;-66
2021/07/05 01:06:17;;;;;;;5.47;3.60;;;;;;;;;;5012319;28;20040;-66
2021/07/05 01:08:44;;;;;;;5.35;3.88;;;;;;;;;;5012614;28;20080;-66
2021/07/05 01:11:10;;;;;;;5.28;4.00;;;;;;;;;;5012247;28;20721;-67
2021/07/05 01:13:36;;;;;;;4.40;3.78;;;;;;;;;;5012312;28;20042;-67
2021/07/05 01:16:02;;;;;;;8.32;3.60;;;;;;;;;;5012448;28;20113;-67
2021/07/05 01:18:28;;;;;;;7.05;5.30;;;;;;;;;;5012499;28;20029;-64
2021/07/05 01:20:58;;;;;;;6.55;3.95;;;;;;;;;;5012059;28;20561;-68
2021/07/05 01:23:24;;;;;;;5.15;3.42;;;;;;;;;;5012385;28;20109;-66
2021/07/05 01:25:50;;;;;;;3.97;3.58;;;;;;;;;;5012489;28;20030;-67
2021/07/05 01:28:16;;;;;;;4.57;3.90;;;;;;;;;;5016393;28;20025;-68
2021/07/05 01:30:42;;;;;;;5.65;4.00;;;;;;;;;;5016470;28;20022;-67
2021/07/05 01:33:09;;;;;;;7.13;3.95;;;;;;;;;;5016350;28;20072;-66
2021/07/05 01:35:35;;;;;;;5.65;4.30;;;;;;;;;;5016295;28;20373;-67
2021/07/05 01:38:02;;;;;;;5.68;3.90;;;;;;;;;;5016376;28;20491;-68
2021/07/05 01:40:29;;;;;;;5.13;3.80;;;;;;;;;;5016423;28;20022;-67
2021/07/05 01:42:57;;;;;;;7.35;5.25;;;;;;;;;;5015932;28;20069;-67
2021/07/05 01:45:24;;;;;;;8.27;5.82;;;;;;;;;;5016484;28;20460;-66
2021/07/05 01:47:50;;;;;;;5.38;3.95;;;;;;;;;;5016207;28;20044;-67
2021/07/05 01:50:17;;;;;;;4.90;3.90;;;;;;;;;;5015963;28;20022;-67
2021/07/05 01:52:43;;;;;;;4.80;3.60;;;;;;;;;;5016214;28;20492;-67
2021/07/05 01:55:09;;;;;;;6.00;3.90;;;;;;;;;;5015913;28;20036;-67
2021/07/05 01:57:36;;;;;;;4.70;3.70;;;;;;;;;;5015948;28;20037;-67
2021/07/05 02:00:07;;;;;;;13.02;7.85;;;;;;;;;;5015818;28;20020;-67
2021/07/05 02:02:33;;;;;;;;;;;;;;;;;;5016431;28;20026;-68
2021/07/05 02:04:59;;;;;;;8.70;4.28;;;;;;;;;;5015643;28;19912;-66
2021/07/05 02:07:25;;;;;;;12.75;9.98;;;;;;;;;;5015832;28;20029;-67
2021/07/05 02:09:51;;;;;;;6.78;5.32;;;;;;;;;;5015772;28;20030;-66
2021/07/05 02:12:18;;;;;;;7.05;4.30;;;;;;;;;;5015195;28;20566;-67
2021/07/05 02:14:44;;;;;;;4.97;3.90;;;;;;;;;;5015496;28;20049;-66
2021/07/05 02:17:11;;;;;;;6.15;4.00;;;;;;;;;;5015396;28;20396;-66
2021/07/05 02:19:37;;;;;;;7.05;4.88;;;;;;;;;;5015119;28;20121;-67
2021/07/05 02:22:04;;;;;;;5.35;4.00;;;;;;;;;;5015192;28;20052;-66
2021/07/05 02:24:31;;;;;;;4.78;3.83;;;;;;;;;;5015346;28;20010;-66
2021/07/05 02:26:57;;;;;;;3.92;3.50;;;;;;;;;;5014964;28;20022;-66
2021/07/05 02:29:23;;;;;;;4.05;3.53;;;;;;;;;;5015140;28;20022;-67
2021/07/05 02:31:50;;;;;;;4.30;3.78;;;;;;;;;;5015072;28;20038;-67
2021/07/05 02:34:16;;;;;;;4.00;3.30;;;;;;;;;;5015104;28;20053;-66
2021/07/05 02:36:42;;;;;;;6.97;4.00;;;;;;;;;;5014780;28;20156;-66
2021/07/05 02:39:09;;;;;;;8.13;4.10;;;;;;;;;;5014409;28;20388;-67
2021/07/05 02:41:36;;;;;;;5.53;3.92;;;;;;;;;;5014725;28;20511;-66
2021/07/05 02:44:02;;;;;;;4.45;3.95;;;;;;;;;;5014826;28;20033;-66
2021/07/05 02:46:28;;;;;;;8.35;3.65;;;;;;;;;;5015054;28;20376;-66
2021/07/05 02:48:54;;;;;;;5.40;3.83;;;;;;;;;;5014480;28;20037;-66
2021/07/05 02:51:20;;;;;;;4.30;3.25;;;563.80;1996.80;;;;;;5014711;28;20101;-66
2021/07/05 02:53:46;;;;;;;4.55;3.25;;;563.90;1971.20;;;;;;5014425;28;20112;-67
2021/07/05 02:56:12;;;;;;;5.90;3.80;;;563.90;1971.20;;;;;;5014472;28;20096;-67
2021/07/05 02:58:38;;;;;;;3.92;3.30;;;;;;;;;;5014461;28;20026;-66
2021/07/05 03:01:07;;;;;;;8.98;3.67;;;;;;;;;;5014651;28;20033;-66
2021/07/05 03:03:33;;;;;;;5.85;3.60;;;;;;;;;;5014979;28;20038;-66
2021/07/05 03:05:59;;;;;;;5.78;5.07;;;;;;;;;;5014647;28;20097;-66
2021/07/05 03:08:25;;;;;;;7.00;4.50;;;;;;;;;;5014623;28;20113;-66
2021/07/05 03:10:52;;;;;;;6.32;3.97;;;;;;;;;;5014638;28;20014;-65
2021/07/05 03:13:19;;;;;;;4.30;3.50;;;;;;;;;;5014363;28;20036;-66
2021/07/05 03:15:46;;;;;;;4.78;3.22;;;;;;;;;;5014444;28;20084;-65
2021/07/05 03:18:12;;;;;;;4.32;3.45;;;;;;;;;;5014724;28;20032;-66
2021/07/05 03:20:42;;;;;;;6.05;3.35;;;;;;;;;;5013231;28;20547;-66
2021/07/05 03:23:09;;;;;;;4.40;3.97;;;;;;;;;;5014422;28;20092;-66
2021/07/05 03:25:37;;;;;;;19.30;14.32;;;589.20;1868.80;;;;;;5014116;28;20061;-66
2021/07/05 03:28:05;;;;;;;36.97;26.63;;;589.30;1817.60;;;;;;5014011;28;20032;-66
2021/07/05 03:30:32;;;;;;;5.88;5.05;;;589.30;1817.60;;;;;;5014329;28;20037;-67
2021/07/05 03:32:59;;;;;;;6.15;5.03;;;589.20;1843.20;;;;;;5013725;28;20026;-66
2021/07/05 03:35:25;;;;;;;5.63;4.30;;;;;;;;;;5013814;28;20053;-67
2021/07/05 03:37:51;;;;;;;7.22;4.63;;;;;;;;;;5013753;28;20021;-67
2021/07/05 03:40:22;;;;;;;8.63;4.97;;;;;;;;;;5013607;28;20072;-66
2021/07/05 03:42:48;;;;;;;7.57;4.10;;;;;;;;;;5014032;28;20430;-66
2021/07/05 03:45:15;;;;;;;5.95;4.13;;;;;;;;;;5013475;28;20463;-67
2021/07/05 03:47:42;;;;;;;4.85;3.80;;;;;;;;;;5013624;28;20026;-66
2021/07/05 03:50:09;;;;;;;3.55;3.25;;;588.90;1843.20;;;;;;5013403;28;20671;-67
2021/07/05 03:52:35;;;;;;;5.75;3.70;;;564.10;1868.80;;;;;;5013493;28;20123;-67
2021/07/05 03:55:03;;;;;;;6.00;3.80;;;564.10;1868.80;;;;;;5013013;28;20030;-67
2021/07/05 03:57:28;;;;;;;5.70;3.65;;;564.10;1843.20;;;;;;5013840;28;20384;-68
2021/07/05 03:59:55;;;;;;;5.65;3.40;;;;;;;;;;5013362;28;20030;-67
2021/07/05 04:02:22;;;;;;;4.53;3.78;;;589.20;1792.00;;;;;;5013433;28;20085;-67
2021/07/05 04:04:48;;;;;;;41.28;18.45;;;589.10;1792.00;;;;;;5013437;28;20022;-67
2021/07/05 04:07:14;;;;;;;15.50;9.07;;;589.00;1817.60;;;;;;5013440;28;20032;-67
2021/07/05 04:09:41;;;;;;;6.82;4.97;;;589.00;1817.60;;;;;;5013283;28;20021;-67
2021/07/05 04:12:11;;;;;;;7.65;4.57;;;588.80;1843.20;;;;;;5013087;28;20068;-67
2021/07/05 04:14:38;;;;;;;7.80;4.53;;;564.10;1843.20;;;;;;5013328;28;20128;-67
2021/07/05 04:17:04;;;;;;;8.93;4.63;;;588.80;1843.20;;;;;;5013032;28;20259;-67
2021/07/05 04:19:30;;;;;;;19.75;12.88;;;588.80;1843.20;;;;;;5013323;28;20046;-68
2021/07/05 04:21:55;;;;;;;6.68;4.38;;;564.10;1843.20;;;;;;5013490;28;20022;-67
2021/07/05 04:24:21;;;;;;;6.35;4.93;;;564.10;1868.80;;;;;;5013099;28;20072;-68
2021/07/05 04:26:48;;;;;;;31.80;20.80;;;588.80;1996.80;;;;;;5013058;28;20029;-67
2021/07/05 04:29:13;;;;;;;10.00;6.97;;;564.10;1868.80;;;;;;5012989;28;20026;-67
2021/07/05 04:31:39;;;;;;;11.13;7.30;;;588.80;1843.20;;;;;;5012968;28;20033;-67
2021/07/05 04:34:05;;;;;;;7.20;5.60;;;588.80;1843.20;;;;;;5013204;28;20029;-67
2021/07/05 04:36:31;;;;;;;7.63;4.75;;;588.80;1868.80;;;;;;5012842;28;20025;-68
2021/07/05 04:38:57;;;;;;;7.22;5.03;;;589.00;1843.20;;;;;;5013269;28;20033;-66
2021/07/05 04:41:22;;;;;;;4.32;3.45;;;589.20;1817.60;;;;;;5012687;28;20034;-67
2021/07/05 04:43:48;;;;;;;8.68;4.50;;;589.30;1817.60;;;;;;5012988;28;20029;-68
2021/07/05 04:46:16;;;;;;;5.78;4.38;;;589.20;1817.60;;;;;;5012396;28;20053;-68
2021/07/05 04:48:42;;;;;;;7.68;4.68;;;589.20;1843.20;;;;;;5012902;28;20029;-68
2021/07/05 04:51:10;;;;;;;6.75;4.50;;;589.40;1817.60;;;;;;5012693;28;20101;-68
2021/07/05 04:53:36;;;;;;;20.55;13.35;;;;;;;;;;5012596;28;20092;-69
2021/07/05 04:56:02;;;;;;;34.80;18.52;;;;;;;;;;5012700;28;20060;-69
2021/07/05 04:58:28;;;;;;;33.67;19.55;;;;;;;;;;5012530;28;20037;-68
2021/07/05 05:00:54;;;;;;;15.85;8.82;;;;;;;;;;5012042;28;20472;-67
2021/07/05 05:03:21;;;;;;;6.82;5.55;;;;;;;;;;5012252;28;20034;-63
2021/07/05 05:05:47;;;;;;;13.07;4.93;;;;;;;;;;5012045;28;20097;-68
2021/07/05 05:08:13;;;;;;;9.25;5.70;;;;;;;;;;5011882;28;20417;-64
2021/07/05 05:10:40;;;;;;;13.10;9.48;;;615.00;1612.80;;;;;;5012037;28;20491;-67
2021/07/05 05:13:07;;;;;;;11.73;5.22;;;614.90;1612.80;;;;;;5011922;28;20041;-64
2021/07/05 05:15:32;;;;;;;10.07;6.15;;;615.00;1612.80;;;;;;5011724;28;20026;-65
2021/07/05 05:17:58;;;;;;;9.20;6.00;;;614.90;1612.80;;;;;;5012097;28;20018;-67
2021/07/05 05:20:24;;;;;;;7.13;4.22;;;615.00;1612.80;;;;;;5011785;28;20587;-68
2021/07/05 05:22:51;;;;;;;9.02;5.30;;;614.90;1612.80;;;;;;5011968;28;20026;-65
2021/07/05 05:25:18;;;;;;;7.82;4.55;;;615.10;1612.80;;;;;;5011919;28;20113;-67
2021/07/05 05:27:45;;;;;;;8.00;4.38;;;615.20;1612.80;;;;;;5011531;28;20030;-64
2021/07/05 05:30:13;;;;;;;6.50;4.32;;;615.20;1587.20;;;;;;5012051;28;20053;-63
2021/07/05 05:32:38;;;;;;;6.90;4.22;;;615.30;1587.20;;;;;;5011795;28;20477;-63
2021/07/05 05:35:05;;;;;;;6.80;4.57;;;;;;;;;;5011295;28;20034;-67
2021/07/05 05:37:32;;;;;;;8.27;4.15;;;;;;;;;;5011968;28;20065;-68
2021/07/05 05:39:58;;;;;;;5.78;3.67;;;;;;;;;;5011886;28;20060;-66
2021/07/05 05:42:24;;;;;;;10.18;4.55;;;;;;;;;;5011773;28;20762;-64
2021/07/05 05:44:50;;;;;;;4.60;4.13;;;;;;;;;;5011614;28;20128;-67
2021/07/05 05:47:16;;;;;;;5.25;4.28;;;;;;;;;;5011861;28;20030;-64
2021/07/05 05:49:42;;;;;;;13.43;9.15;;;;;;;;;;5011474;28;20044;-64
2021/07/05 05:52:08;;;;;;;7.40;4.97;;;;;;;;;;5011512;28;20034;-67
2021/07/05 05:54:34;;;;;;;6.25;4.95;;;;;;;;;;5011440;28;20024;-66
2021/07/05 05:57:01;;;;;;;4.60;3.90;;;;;;;;;;5011469;28;20061;-67
2021/07/05 05:59:27;;;;;;;9.57;4.45;;;;;;;;;;5011871;28;20109;-66
2021/07/05 06:01:53;;;;;;;5.28;4.13;;;;;;;;;;5012006;28;20026;-68
2021/07/05 06:04:20;;;;;;;7.90;4.07;;;;;;;;;;5012043;28;20056;-68
2021/07/05 06:06:47;;;;;;;4.72;3.92;;;;;;;;;;5011666;28;20111;-68
2021/07/05 06:09:13;;;;;;;9.55;4.55;;;;;;;;;;5011901;28;20049;-69
2021/07/05 06:11:40;;;;;;;8.35;4.47;;;;;;;;;;5011808;28;20022;-68
2021/07/05 06:14:07;;;;;;;6.80;3.80;;;;;;;;;;5014195;28;20442;-67
2021/07/05 06:16:34;;;;;;;6.90;4.15;;;;;;;;;;5015598;28;20022;-69
2021/07/05 06:19:00;;;;;;;5.60;4.28;;;;;;;;;;5015389;28;20038;-68
2021/07/05 06:21:26;;;;;;;9.48;4.75;;;665.70;1510.40;;;;;;5015388;28;20455;-69
2021/07/05 06:23:55;;;;;;;5.22;4.25;;;665.70;1612.80;;;;;;5015304;28;20465;-70
2021/07/05 06:26:21;;;;;;;7.28;5.15;;;665.70;1510.40;;;;;;5015349;28;20534;-66
2021/07/05 06:28:47;;;;;;;8.90;5.60;;;665.70;1510.40;;;;;;5015576;28;20052;-65
2021/07/05 06:31:13;;;;;;;10.65;5.50;;;665.70;1510.40;;;;;;5015032;28;20024;-66
2021/07/05 06:33:39;;;;;;;6.88;4.40;;;665.70;1510.40;;;;;;5015106;28;20117;-64
2021/07/05 06:36:05;;;;;;;8.70;6.38;;;665.70;1510.40;;;;;;5014928;28;20065;-66
2021/07/05 06:38:31;;;;;;;7.65;5.82;;;665.80;1510.40;;;;;;5015098;28;20026;-67
2021/07/05 06:40:58;;;;;;;6.55;5.18;;;;;;;;;;5013751;28;20029;-65
2021/07/05 06:43:25;;;;;;;6.90;4.65;;;;;;;;;;5015272;28;20353;-63
2021/07/05 06:45:51;;;;;;;11.20;5.28;;;;;;;;;;5014946;28;20105;-67
2021/07/05 06:48:17;;;;;;;8.15;5.03;;;;;;;;;;5014815;28;20022;-65
2021/07/05 06:50:44;;;;;;;11.25;5.93;;;;;;;;;;5014899;28;20380;-68
2021/07/05 06:53:10;;;;;;;8.55;6.07;;;;;;;;;;5014573;28;20037;-67
2021/07/05 06:55:37;;;;;;;6.82;4.88;;;;;;;;;;5014970;28;20058;-69
2021/07/05 06:58:03;;;;;;;8.05;5.50;;;;;;;;;;5014679;28;20041;-66
2021/07/05 07:00:30;;;;;;;8.48;5.97;;;;;;;;;;5014264;28;20045;-67
2021/07/05 07:02:57;;;;;;;7.10;5.95;;;;;;;;;;5014492;28;20017;-67
2021/07/05 07:05:23;;;;;;;7.40;5.13;;;;;;;;;;5014586;28;20024;-66
2021/07/05 07:07:51;;;;;;;8.25;5.53;;;;;;;;;;5014879;28;20152;-67
2021/07/05 07:10:18;;;;;;;13.32;6.40;;;;;;;;;;5014464;28;20034;-68
2021/07/05 07:12:50;;;;;;;6.90;6.03;;;;;;;;;;5002512;28;20037;-67
2021/07/05 07:15:19;;;;;;;12.82;9.98;;;;;;;;;;5014207;28;20401;-66
2021/07/05 07:17:49;;;;;;;11.57;8.38;;;;;;;;;;5014349;28;20088;-68
2021/07/05 07:20:15;;;;;;;17.45;11.30;;;;;;;;;;5014127;28;20507;-67
2021/07/05 07:22:42;;;;;;;12.00;6.35;;;;;;;;;;5014184;28;20026;-66
2021/07/05 07:25:09;;;;;;;11.88;6.57;;;;;;;;;;5013783;28;20487;-67
2021/07/05 07:27:35;;;;;;;10.70;7.28;;;;;;;;;;5013745;28;20021;-69
2021/07/05 07:30:02;;;;;;;9.27;6.30;;;;;;;;;;5014161;28;20029;-67
2021/07/05 07:32:28;;;;;;;13.38;6.57;;;;;;;;;;5014028;28;20092;-67
2021/07/05 07:34:54;;;;;;;11.05;6.40;;;;;;;;;;5013783;28;20018;-67
2021/07/05 07:37:20;;;;;;;9.23;5.75;;;;;;;;;;5014114;28;20105;-67
2021/07/05 07:39:54;;;;;;;10.45;7.18;;;;;;;;;;5013842;28;20026;-68
2021/07/05 07:42:20;;;;;;;8.07;5.72;;;;;;;;;;5013916;28;20025;-68
2021/07/05 07:44:46;;;;;;;9.80;6.25;;;;;;;;;;5013978;28;20089;-69
2021/07/05 07:47:12;;;;;;;13.30;8.63;;;;;;;;;;5013398;28;20531;-69
2021/07/05 07:49:38;;;;;;;8.40;6.38;;;;;;;;;;5013748;28;20041;-70
2021/07/05 07:52:05;;;;;;;8.45;7.00;;;;;;;;;;5013515;28;20034;-70
2021/07/05 07:54:31;;;;;;;11.15;6.57;;;;;;;;;;5013801;28;20022;-70
2021/07/05 07:56:57;;;;;;;7.15;5.97;;;;;;;;;;5013682;28;20025;-64
2021/07/05 07:59:23;;;;;;;12.02;5.47;;;;;;;;;;5013551;28;20026;-70
2021/07/05 08:01:49;;;;;;;5.85;5.25;;;;;;;;;;5013075;28;20084;-70
2021/07/05 08:04:16;;;;;;;6.85;5.95;;;;;;;;;;5013605;28;20034;-69
2021/07/05 08:06:42;;;;;;;10.55;5.68;;;;;;;;;;5013400;28;20030;-69
2021/07/05 08:09:08;;;;;;;7.85;5.22;;;;;;;;;;5013169;28;20022;-68
2021/07/05 08:11:35;;;;;;;8.25;6.40;;;;;;;;;;5013432;28;20472;-71
2021/07/05 08:14:03;;;;;;;8.93;5.90;;;;;;;;;;5013394;28;20061;-70
2021/07/05 08:16:29;;;;;;;9.02;5.65;;;;;;;;;;5013529;28;20034;-71
2021/07/05 08:18:55;;;;;;;7.63;5.40;;;;;;;;;;5013117;28;20064;-68
2021/07/05 08:21:22;;;;;;;7.13;5.60;;;;;;;;;;5013170;28;20062;-70
2021/07/05 08:23:48;;;;;;;9.85;7.45;;;;;;;;;;5013164;28;20556;-66
2021/07/05 08:26:14;;;;;;;10.70;6.15;;;;;;;;;;5012790;28;20108;-68
2021/07/05 08:28:41;;;;;;;8.40;6.50;;;;;;;;;;5012580;28;20548;-67
2021/07/05 08:31:08;;;;;;;13.90;6.75;;;;;;;;;;5012863;28;20018;-68
2021/07/05 08:33:35;;;;;;;11.23;6.35;;;;;;;;;;5013106;28;20029;-68
2021/07/05 08:36:01;;;;;;;7.93;5.70;;;;;;;;;;5012326;28;20033;-68
2021/07/05 08:38:28;;;;;;;7.68;5.75;;;;;;;;;;5012764;28;20528;-67
2021/07/05 08:40:56;;;;;;;9.82;6.20;;;;;;;;;;5012818;28;20034;-68
2021/07/05 08:43:27;;;;;;;9.32;6.07;;;;;;;;;;5013026;28;20218;-68
2021/07/05 08:45:59;;;;;;;13.75;6.15;;;;;;;;;;5012377;28;20022;-68
2021/07/05 08:48:28;;;;;;;10.00;5.65;;;;;;;;;;5012900;28;20022;-69
2021/07/05 08:50:54;;;;;;;10.80;5.97;;;;;;;;;;5012013;28;20076;-66
2021/07/05 08:53:20;;;;;;;8.30;6.43;;;;;;;;;;5012352;28;20465;-67
2021/07/05 08:55:46;;;;;;;11.93;7.72;;;;;;;;;;5012553;28;20018;-67
2021/07/05 08:58:13;;;;;;;26.23;19.17;;;;;;;;;;5012575;28;20484;-66
2021/07/05 09:00:39;;;;;;;18.95;11.07;;;;;;;;;;5012635;28;20026;-66
2021/07/05 09:03:06;;;;;;;37.55;26.00;;;;;;;;;;5012447;28;20058;-67
2021/07/05 09:05:32;;;;;;;42.70;27.85;;;;;;;;;;5012304;28;20025;-66
2021/07/05 09:08:04;;;;;;;66.30;44.78;;;;;;;;;;5012302;28;20025;-66
2021/07/05 09:10:40;;;;;;;67.47;42.38;;;;;;;;;;5012494;28;20018;-66
2021/07/05 09:13:09;;;;;;;74.00;49.17;;;;;;;;;;5012070;28;20121;-66
2021/07/05 09:15:37;;;;;;;83.10;55.30;;;;;;;;;;5009553;28;20026;-69
2021/07/05 09:18:03;;;;;;;115.82;82.13;;;;;;;;;;5011943;28;20080;-65
2021/07/05 09:20:31;;;;;;;38.03;24.98;;;;;;;;;;5011505;28;20038;-66
2021/07/05 09:23:14;;;;;;;34.75;24.83;;;;;;;;;;5011822;28;20033;-66
2021/07/05 09:25:45;;;;;;;46.42;31.88;;;;;;;;;;5010039;28;20026;-67
2021/07/05 09:28:11;;;;;;;33.83;19.85;;;;;;;;;;5011535;28;20022;-70
2021/07/05 09:30:42;;;;;;;26.67;17.27;;;;;;;;;;5011573;28;20032;-68
2021/07/05 09:33:18;;;;;;;67.43;46.38;;;;;;;;;;5011561;28;20519;-68
2021/07/05 09:35:45;;;;;;;28.85;20.70;;;;;;;;;;5012010;28;20026;-70
2021/07/05 09:38:11;;;;;;;23.05;17.73;;;;;;;;;;5012049;28;20029;-67
2021/07/05 09:40:37;;;;;;;39.60;24.13;;;;;;;;;;5011817;28;20065;-69
2021/07/05 09:43:22;;;;;;;21.40;15.82;;;;;;;;;;5011812;28;20433;-67
2021/07/05 09:45:48;;;;;;;41.58;26.95;;;;;;;;;;5012020;28;20026;-69
2021/07/05 09:48:17;;;;;;;37.00;25.98;;;;;;;;;;5014458;28;20101;-68
2021/07/05 09:50:43;;;;;;;10.23;7.88;;;;;;;;;;5015936;28;20552;-68
2021/07/05 09:53:35;;;;;;;13.20;10.13;;;;;;;;;;5015513;28;20037;-68
2021/07/05 09:56:20;;;;;;;33.20;21.88;;;;;;;;;;5013767;28;20034;-65
2021/07/05 09:58:48;;;;;;;19.58;12.00;;;;;;;;;;5014516;28;20116;-70
2021/07/05 10:01:34;;;;;;;14.40;10.40;;;;;;;;;;5015552;28;20029;-71
2021/07/05 10:04:03;;;;;;;15.27;9.57;;;;;;;;;;5015587;28;20041;-66
2021/07/05 10:06:29;;;;;;;15.45;11.23;;;;;;;;;;5014963;28;20036;-68
2021/07/05 10:08:56;;;;;;;19.40;13.43;;;;;;;;;;5014972;28;20053;-65
2021/07/05 10:11:25;;;;;;;16.88;12.15;;;;;;;;;;5015333;28;20022;-71
2021/07/05 10:13:51;;;;;;;11.38;9.52;;;;;;;;;;5015203;28;20109;-66
2021/07/05 10:16:17;;;;;;;10.55;7.50;;;;;;;;;;5015088;28;20025;-66
2021/07/05 10:18:43;;;;;;;10.63;7.15;;;;;;;;;;5015295;28;20476;-68
2021/07/05 10:21:09;;;;;;;11.73;7.25;;;;;;;;;;5014780;28;20077;-68
2021/07/05 10:23:37;;;;;;;12.93;8.98;;;;;;;;;;5014293;28;20037;-66
2021/07/05 10:26:05;;;;;;;12.50;8.10;;;;;;;;;;5014446;28;20029;-68
2021/07/05 10:28:32;;;;;;;13.65;9.38;;;;;;;;;;5014552;28;20479;-65
2021/07/05 10:30:58;;;;;;;14.40;9.32;;;;;;;;;;5014656;28;20022;-66
2021/07/05 10:33:24;;;;;;;11.73;8.70;;;;;;;;;;5014333;28;20038;-67
2021/07/05 10:35:56;;;;;;;14.52;12.18;;;;;;;;;;5014103;28;20026;-67
2021/07/05 10:38:44;;;;;;;11.93;9.68;;;;;;;;;;5014261;28;20125;-69
2021/07/05 10:41:12;;;;;;;9.07;5.68;;;;;;;;;;5013758;28;20022;-68
2021/07/05 10:43:54;;;;;;;11.90;8.30;;;;;;;;;;5014766;28;20056;-71
2021/07/05 10:46:39;;;;;;;8.75;6.07;;;;;;;;;;5014567;28;20076;-68
2021/07/05 10:49:06;;;;;;;8.00;6.22;;;;;;;;;;5014927;28;20063;-67
2021/07/05 10:51:50;;;;;;;13.27;7.80;;;;;;;;;;5014853;28;20037;-66
2021/07/05 10:54:36;;;;;;;6.75;4.50;;;;;;;;;;5014816;28;20438;-66
2021/07/05 10:57:02;;;;;;;9.68;6.20;;;;;;;;;;5013278;28;20026;-70
2021/07/05 10:59:28;;;;;;;6.45;5.10;;;;;;;;;;5014144;28;20049;-69
2021/07/05 11:01:54;;;;;;;8.40;5.10;;;;;;;;;;5017006;28;20055;-68
2021/07/05 11:04:22;;;;;;;6.57;4.72;;;;;;;;;;5023547;28;20037;-67
2021/07/05 11:06:49;;;;;;;9.98;4.85;;;;;;;;;;5016756;28;20010;-68
2021/07/05 11:09:22;;;;;;;12.68;6.03;;;;;;;;;;5014478;28;20192;-71
2021/07/05 11:11:57;;;;;;;10.82;5.60;;;;;;;;;;5014258;28;20021;-67
2021/07/05 11:14:25;;;;;;;10.63;5.78;;;;;;;;;;5014519;28;20033;-67
2021/07/05 11:16:51;;;;;;;10.48;6.00;;;;;;;;;;5014585;28;20026;-66
2021/07/05 11:19:38;;;;;;;8.50;5.55;;;;;;;;;;5014026;28;20062;-66
2021/07/05 11:22:20;;;;;;;10.88;7.18;;;;;;;;;;5013619;28;20033;-66
2021/07/05 11:24:50;;;;;;;17.33;9.68;;;;;;;;;;5011347;28;20026;-67
2021/07/05 11:27:25;;;;;;;24.80;19.73;;;;;;;;;;5013610;28;20486;-68
2021/07/05 11:29:51;;;;;;;31.77;27.13;;;;;;;;;;5012971;28;20018;-66
2021/07/05 11:32:57;;;;;;;26.35;21.90;;;743.20;1305.60;;;;;;5013514;28;20029;-66
2021/07/05 11:35:44;;;;;;;20.75;18.60;;;743.30;1305.60;;;;;;4972150;28;20487;-66
2021/07/05 11:38:15;;;;;;;42.65;33.85;;;743.30;1331.20;;;;;;4972370;28;20103;-65
2021/07/05 11:40:43;;;;;;;27.25;24.30;;;768.00;1331.20;;;;;;4972376;28;20031;-68
2021/07/05 11:43:10;;;;;;;56.75;49.42;;;;;;;;;;4972070;28;20094;-67
2021/07/05 11:45:47;;;;;;;49.38;41.70;;;;;;;;;;4972134;28;20179;-65
2021/07/05 11:48:38;;;;;;;14.57;13.02;;;768.80;1280.00;;;;;;4972051;28;20031;-66
2021/07/05 11:51:15;;;;;;;15.30;12.45;;;;;;;;;;4971742;28;20043;-68
2021/07/05 11:53:41;;;;;;;25.75;23.05;;;768.90;1254.40;;;;;;4971946;28;20039;-67
2021/07/05 11:56:07;;;;;;;13.00;10.77;;;793.60;1254.40;;;;;;4971981;28;20134;-66
2021/07/05 11:58:33;;;;;;;14.20;12.38;;;;;;;;;;4971800;28;20034;-65
2021/07/05 12:01:11;;;;;;;15.27;12.75;;;793.90;1254.40;;;;;;4971950;28;20381;-69
2021/07/05 12:03:49;;;;;;;11.77;10.52;;;;;;;;;;4972090;28;20035;-69
2021/07/05 12:06:15;;;;;;;11.57;10.38;;;;;;;;;;4971601;28;20555;-69
2021/07/05 12:08:41;;;;;;;10.45;9.35;;;;;;;;;;4981931;28;20041;-65
2021/07/05 12:11:07;;;;;;;11.15;8.27;;;;;;;;;;5011882;28;20026;-66
2021/07/05 12:13:33;;;;;;;12.48;10.25;;;;;;;;;;5013109;28;20030;-66
2021/07/05 12:16:03;;;;;;;15.07;10.57;;;;;;;;;;5012974;28;20087;-66
2021/07/05 12:18:29;;;;;;;10.50;9.45;;;;;;;;;;4986926;28;20473;-65
2021/07/05 12:20:58;;;;;;;12.27;9.63;;;;;;;;;;5011809;28;20129;-66
2021/07/05 12:23:32;;;;;;;12.73;8.63;;;;;;;;;;5012829;28;20116;-66
2021/07/05 12:26:10;;;;;;;13.10;7.82;;;;;;;;;;5012851;28;20060;-66
2021/07/05 12:28:36;;;;;;;9.25;8.40;;;;;;;;;;5012875;28;20383;-66
2021/07/05 12:31:02;;;;;;;12.57;7.45;;;;;;;;;;5012890;28;20021;-66
2021/07/05 12:33:28;;;;;;;8.75;7.80;;;;;;;;;;5012885;28;20036;-66
2021/07/05 12:35:58;;;;;;;9.88;8.48;;;;;;;;;;5012530;28;20472;-67
2021/07/05 12:38:26;;;;;;;13.73;9.30;;;;;;;;;;5012532;28;20053;-69
2021/07/05 12:40:52;;;;;;;9.48;8.55;;;;;;;;;;5012938;28;20053;-67
2021/07/05 12:43:18;;;;;;;12.02;9.07;;;;;;;;;;5012485;28;20447;-65
2021/07/05 12:45:51;;;;;;;9.55;8.57;;;;;;;;;;5012396;28;20018;-66
2021/07/05 12:48:20;;;;;;;9.40;7.68;;;;;;;;;;5012251;28;20032;-66
2021/07/05 12:50:46;;;;;;;11.57;7.10;;;;;;;;;;5012366;28;20036;-67
2021/07/05 12:53:14;;;;;;;9.63;8.00;;;;;;;;;;5012593;28;20115;-67
2021/07/05 12:55:48;;;;;;;9.05;7.45;;;;;;;;;;5012575;28;20065;-66
2021/07/05 12:58:14;;;;;;;7.15;6.38;;;;;;;;;;5012623;28;20040;-68
2021/07/05 13:00:50;;;;;;;8.75;7.88;;;;;;;;;;5012634;28;20023;-66
2021/07/05 13:03:18;;;;;;;8.80;7.50;;;;;;;;;;5012335;28;20034;-69
2021/07/05 13:05:44;;;;;;;7.22;6.53;;;;;;;;;;5012352;28;20406;-66
2021/07/05 13:08:10;;;;;;;9.35;7.55;;;;;;;;;;5012616;28;20510;-67
2021/07/05 13:10:41;;;;;;;8.07;7.15;;;;;;;;;;5012140;28;20507;-68
2021/07/05 13:13:09;;;;;;;7.25;6.55;;;;;;;;;;5003267;28;20041;-67
2021/07/05 13:15:38;;;;;;;10.00;7.13;;;;;;;;;;5012144;28;20499;-67
2021/07/05 13:18:14;;;;;;;8.00;6.32;;;;;;;;;;5011819;28;20060;-67
2021/07/05 13:20:41;;;;;;;8.13;6.68;;;;;;;;;;5011820;28;20046;-65
2021/07/05 13:23:07;;;;;;;12.25;6.30;;;;;;;;;;5011753;28;20408;-67
2021/07/05 13:25:33;;;;;;;8.57;7.55;;;;;;;;;;5012251;28;20491;-65
2021/07/05 13:28:13;;;;;;;6.93;6.20;;;;;;;;;;5011864;28;20026;-69
2021/07/05 13:30:40;;;;;;;8.82;6.30;;;;;;;;;;5011978;28;20084;-67
2021/07/05 13:33:06;;;;;;;8.02;7.30;;;;;;;;;;5011741;28;20500;-67
2021/07/05 13:35:33;;;;;;;7.93;6.80;;;;;;;;;;5011940;28;20416;-68
2021/07/05 13:38:02;;;;;;;9.02;7.95;;;;;;;;;;5011773;28;20468;-67
2021/07/05 13:40:29;;;;;;;8.55;7.75;;;;;;;;;;5011700;28;20030;-70
2021/07/05 13:43:03;;;;;;;9.50;8.50;;;;;;;;;;5011623;28;20431;-67
2021/07/05 13:45:32;;;;;;;9.55;8.65;;;;;;;;;;5011537;28;20032;-70
2021/07/05 13:48:00;;;;;;;8.57;6.30;;;;;;;;;;5011362;28;20117;-68
2021/07/05 13:50:27;;;;;;;10.23;7.35;;;;;;;;;;5005774;28;20026;-69
2021/07/05 13:52:55;;;;;;;12.65;7.72;;;;;;;;;;5004610;28;20113;-68
2021/07/05 13:55:21;;;;;;;9.10;7.97;;;;;;;;;;5011562;28;20022;-70
2021/07/05 13:57:47;;;;;;;9.15;7.93;;;;;;;;;;5011483;28;20041;-66
2021/07/05 14:00:13;;;;;;;9.35;8.45;;;;;;;;;;5012000;28;20030;-71
2021/07/05 14:02:41;;;;;;;9.52;6.85;;;;;;;;;;5011817;28;20040;-69
2021/07/05 14:05:16;;;;;;;10.73;7.93;;;;;;;;;;5011513;28;20056;-67
2021/07/05 14:07:42;;;;;;;9.07;6.43;;;;;;;;;;5011838;28;20049;-68